Time;durP1;ratioP1;P1;durP2;ratioP2;P2;SDS_P1;SDS_P2;PMS_P1;PMS_P2;Temp;Humidity;BMP_temperature;BMP_pressure;BME280_temperature;BME280_humidity;BME280_pressure;Samples;Min_cycle;Max_cycle;Signal;HPM_P1;HPM_P2
2022/01/10 00:01:07;;;;;;;3.10;1.20;;;;;;;19.79;42.20;101581.38;4215181;28;20097;-60
2022/01/10 00:03:09;;;;;;;3.40;1.40;;;;;;;19.76;41.90;101565.22;4227974;28;20423;-58
2022/01/10 00:05:11;;;;;;;5.00;1.63;;;;;;;19.78;42.13;101568.56;4215581;28;20086;-59
2022/01/10 00:07:15;;;;;;;3.75;1.35;;;;;;;19.79;41.67;101570.28;4214539;28;20382;-61
2022/01/10 00:09:16;;;;;;;5.35;1.63;;;;;;;19.77;42.01;101566.91;4214284;28;20027;-59
2022/01/10 00:11:18;;;;;;;6.20;1.60;;;;;;;19.80;41.83;101571.94;4227595;28;20421;-60
2022/01/10 00:13:19;;;;;;;2.90;1.33;;;;;;;19.81;41.59;101572.78;4225157;28;20084;-59
2022/01/10 00:15:21;;;;;;;3.28;1.20;;;;;;;19.82;41.90;101577.25;4231190;28;20116;-55
2022/01/10 00:17:22;;;;;;;3.50;1.30;;;;;;;19.80;41.86;101571.94;4231086;28;20044;-60
2022/01/10 00:19:26;;;;;;;9.88;1.75;;;;;;;19.82;41.67;101576.41;4229548;28;20108;-61
2022/01/10 00:21:28;;;;;;;2.37;1.70;;;;;;;19.80;41.43;101571.13;4222559;28;20090;-60
2022/01/10 00:23:29;;;;;;;2.42;1.30;;;;;;;19.79;41.56;101573.06;4213606;28;20097;-59
2022/01/10 00:25:31;;;;;;;4.90;1.10;;;;;;;19.80;41.72;101574.72;4218890;28;20039;-60
2022/01/10 00:27:32;;;;;;;5.47;1.40;;;;;;;19.77;41.92;101566.91;4225312;28;20039;-60
2022/01/10 00:29:34;;;;;;;2.30;1.35;;;;;;;19.79;41.67;101564.72;4224340;28;20092;-59
2022/01/10 00:31:35;;;;;;;3.60;1.10;;;;;;;19.79;41.55;101570.28;4230428;28;20043;-60
2022/01/10 00:33:36;;;;;;;2.40;1.30;;;;;;;19.78;41.84;101574.13;4230130;28;20043;-60
2022/01/10 00:35:38;;;;;;;4.35;1.35;;;;;;;19.75;41.57;101558.00;4211709;28;20039;-59
2022/01/10 00:37:42;;;;;;;3.63;1.58;;;;;;;19.78;41.81;101560.25;4231168;28;20093;-60
2022/01/10 00:39:46;;;;;;;5.10;1.17;;;;;;;19.78;41.58;101563.03;4219436;28;20101;-60
2022/01/10 00:41:48;;;;;;;9.23;1.55;;;;;;;19.78;42.05;101556.63;4213102;28;20040;-60
2022/01/10 00:43:51;;;;;;;3.50;1.30;;;;;;;19.76;41.85;101548.56;4221678;27;20377;-61
2022/01/10 00:45:52;;;;;;;3.20;1.13;;;;;;;19.79;41.76;101561.94;4223426;28;20056;-60
2022/01/10 00:47:58;;;;;;;2.45;1.30;;;;;;;19.78;42.16;101551.06;4213540;28;20039;-60
2022/01/10 00:50:02;;;;;;;3.92;1.52;;;;;;;19.77;41.83;101553.00;4223903;28;20055;-61
2022/01/10 00:52:07;;;;;;;2.60;1.40;;;;;;;19.77;42.32;101550.25;4219693;28;20040;-60
2022/01/10 00:54:09;;;;;;;3.15;1.75;;;;;;;19.75;42.20;101541.34;4224505;28;20043;-59
2022/01/10 00:56:10;;;;;;;2.83;1.38;;;;;;;19.77;42.13;101554.97;4232213;28;20036;-61
2022/01/10 00:58:12;;;;;;;3.85;1.40;;;;;;;19.76;42.15;101558.84;4219874;28;20421;-60
2022/01/10 01:00:16;;;;;;;6.40;1.50;;;;;;;19.76;42.20;101556.91;4225083;28;20384;-60
2022/01/10 01:02:22;;;;;;;5.10;1.27;;;;;;;19.74;42.35;101561.84;4220439;28;20044;-61
2022/01/10 01:04:24;;;;;;;3.60;1.50;;;;;;;19.77;42.19;101564.13;4225451;28;20044;-60
2022/01/10 01:06:25;;;;;;;3.00;1.80;;;;;;;19.77;42.32;101560.50;4227175;28;20020;-60
2022/01/10 01:08:29;;;;;;;3.53;2.03;;;;;;;19.77;42.60;101561.34;4223001;28;20032;-61
2022/01/10 01:12:50;;;;;;;3.40;1.90;;;;;;;19.73;42.54;101551.84;4229694;28;20024;-60
2022/01/10 01:14:54;;;;;;;3.58;1.92;;;;;;;19.78;42.70;101546.34;4210975;28;20052;-62
2022/01/10 01:17:11;;;;;;;7.57;2.88;;;;;;;19.77;42.59;101533.56;4224235;28;20064;-62
2022/01/10 01:26:02;;;;;;;8.02;3.53;;;;;;;19.84;44.13;101538.09;4230252;27;20080;-57
2022/01/10 01:28:04;;;;;;;10.70;4.15;;;;;;;19.78;44.99;101526.91;4229045;28;20085;-61
2022/01/10 01:30:07;;;;;;;8.27;3.90;;;;;;;19.80;45.59;101535.00;4221678;28;20112;-64
2022/01/10 01:32:09;;;;;;;7.75;3.78;;;;;;;19.77;45.43;101536.34;4229277;28;20089;-61
2022/01/10 01:34:15;;;;;;;7.72;3.00;;;;;;;19.75;45.08;101529.41;4221073;28;20081;-61
2022/01/10 01:36:21;;;;;;;6.03;3.20;;;;;;;19.75;45.60;101534.94;4229159;28;20127;-61
2022/01/10 01:38:24;;;;;;;6.90;2.90;;;;;;;19.73;45.43;101537.97;4229851;28;20043;-60
2022/01/10 01:40:28;;;;;;;8.05;3.38;;;;;;;19.72;46.06;101541.00;4210626;28;20048;-60
2022/01/10 01:42:39;;;;;;;7.68;2.95;;;;;;;19.70;46.74;101544.06;4229988;28;20035;-62
2022/01/10 01:44:41;;;;;;;15.35;4.55;;;;;;;19.74;49.98;101539.63;4229112;28;20437;-61
2022/01/10 01:46:43;;;;;;;14.27;4.25;;;;;;;19.80;51.64;101538.63;4229274;28;20092;-59
2022/01/10 01:48:46;;;;;;;12.55;4.68;;;;;;;19.78;52.35;101534.41;4229841;28;20036;-61
2022/01/10 01:50:47;;;;;;;14.45;4.22;;;;;;;19.79;52.99;101528.63;4229673;28;20048;-59
2022/01/10 01:52:48;;;;;;;11.45;4.22;;;;;;;19.83;52.96;101533.63;4227747;28;20100;-61
2022/01/10 01:54:51;;;;;;;16.10;4.05;;;;;;;19.74;52.91;101522.97;4228149;28;20196;-61
2022/01/10 01:56:52;;;;;;;16.30;4.78;;;;;;;19.76;52.93;101531.91;4232955;28;20474;-58
2022/01/10 01:58:55;;;;;;;17.65;4.25;;;;;;;19.80;53.08;101533.06;4232324;28;20040;-60
2022/01/10 02:00:56;;;;;;;14.20;5.15;;;;;;;19.82;53.06;101537.53;4232104;28;20452;-59
2022/01/10 02:02:58;;;;;;;8.18;3.97;;;;;;;19.82;52.95;101531.97;4231965;28;20483;-61
2022/01/10 02:04:59;;;;;;;6.80;3.88;;;;;;;19.80;52.88;101530.28;4232706;28;20440;-60
2022/01/10 02:07:01;;;;;;;11.30;4.32;;;;;;;19.79;52.75;101517.50;4229940;28;20564;-61
2022/01/10 02:09:03;;;;;;;9.65;4.25;;;;;;;19.80;52.60;101526.69;4215893;28;20036;-59
2022/01/10 02:11:09;;;;;;;12.07;4.38;;;;;;;19.77;52.62;101525.25;4221031;28;20035;-61
2022/01/10 02:13:11;;;;;;;9.25;4.88;;;;;;;19.79;52.46;101525.84;4230605;28;20036;-59
2022/01/10 02:15:59;;;;;;;10.95;4.20;;;;;;;19.76;52.46;101523.56;4232378;28;20093;-60
2022/01/10 02:17:59;;;;;;;8.13;4.15;;;;;;;19.79;52.41;101527.75;4228237;28;20048;-60
2022/01/10 02:20:06;;;;;;;8.63;4.10;;;;;;;19.70;52.32;101513.50;4231880;28;20069;-61
2022/01/10 02:22:07;;;;;;;8.68;4.13;;;;;;;19.76;52.21;101520.78;4226540;28;20036;-61
2022/01/10 02:24:09;;;;;;;8.23;3.92;;;;;;;19.72;52.18;101499.38;4224475;28;20069;-62
2022/01/10 02:26:10;;;;;;;11.82;4.80;;;;;;;19.75;52.08;101513.56;4231981;28;20551;-60
2022/01/10 02:28:12;;;;;;;10.80;4.13;;;;;;;19.75;52.21;101512.75;4217431;28;20036;-60
2022/01/10 02:30:17;;;;;;;9.68;3.67;;;;;;;19.74;52.22;101517.41;4232230;27;20155;-59
2022/01/10 02:32:21;;;;;;;6.70;4.03;;;;;;;19.74;51.78;101508.25;4228068;27;20080;-59
2022/01/10 02:34:25;;;;;;;8.77;4.18;;;;;;;19.73;52.08;101510.19;4215500;28;20089;-60
2022/01/10 02:36:27;;;;;;;6.70;3.92;;;;;;;19.70;52.04;101510.75;4217465;28;20483;-60
2022/01/10 02:38:29;;;;;;;10.45;4.30;;;;;;;19.70;51.92;101519.06;4227436;27;20044;-61
2022/01/10 02:40:34;;;;;;;12.43;4.20;;;;;;;19.69;51.75;101513.75;4231379;27;20093;-60
2022/01/10 02:42:36;;;;;;;8.23;4.20;;;;;;;19.67;51.80;101515.97;4231934;27;20097;-61
2022/01/10 02:44:38;;;;;;;8.23;3.67;;;;;;;19.70;51.98;101526.53;4232263;28;20414;-60
2022/01/10 02:46:41;;;;;;;9.90;3.42;;;;;;;19.69;51.70;101517.38;4231768;28;20035;-59
2022/01/10 02:48:45;;;;;;;6.55;3.42;;;;;;;19.67;51.88;101511.25;4229729;28;20040;-62
2022/01/10 02:50:47;;;;;;;7.82;3.42;;;;;;;19.67;51.79;101516.78;4232149;27;20104;-60
2022/01/10 02:52:49;;;;;;;6.50;3.33;;;;;;;19.65;51.82;101518.13;4231572;27;20444;-61
2022/01/10 02:54:50;;;;;;;8.07;3.45;;;;;;;19.67;51.75;101527.91;4226013;28;20115;-61
2022/01/10 02:56:57;;;;;;;5.88;3.33;;;;;;;19.66;51.71;101526.22;4231176;28;20093;-60
2022/01/10 02:58:58;;;;;;;8.40;4.38;;;;;;;19.65;51.76;101524.53;4233767;27;20112;-60
2022/01/10 03:00:59;;;;;;;7.72;4.03;;;;;;;19.64;51.27;101531.19;4232383;28;20428;-60
2022/01/10 03:03:06;;;;;;;6.82;3.60;;;;;;;19.65;51.59;101521.75;4226677;27;20547;-61
2022/01/10 03:05:08;;;;;;;6.78;3.38;;;;;;;19.57;51.12;101510.25;4237517;27;20119;-60
2022/01/10 03:07:10;;;;;;;7.43;3.53;;;;;;;19.63;51.43;101521.19;4229930;28;20080;-61
2022/01/10 03:09:12;;;;;;;6.60;3.33;;;;;;;19.62;51.52;101513.97;4226908;28;20123;-59
2022/01/10 03:11:14;;;;;;;7.82;3.72;;;;;;;19.63;51.12;101525.91;4226132;28;20047;-60
2022/01/10 03:13:15;;;;;;;5.60;3.33;;;;;;;19.58;51.17;101534.97;4223640;28;20048;-61
2022/01/10 03:15:18;;;;;;;5.70;3.38;;;;;;;19.61;51.29;101540.06;4230166;28;20131;-62
2022/01/10 03:17:19;;;;;;;8.65;3.33;;;;;;;19.60;51.28;101538.34;4209218;28;20471;-62
2022/01/10 03:19:20;;;;;;;6.82;3.60;;;;;;;19.59;51.38;101544.97;4234684;27;20032;-60
2022/01/10 03:21:22;;;;;;;6.43;3.30;;;;;;;19.59;50.94;101556.06;4222707;27;20044;-58
2022/01/10 03:23:23;;;;;;;8.80;3.90;;;;;;;19.58;51.15;101564.69;4225512;28;20316;-61
2022/01/10 03:25:25;;;;;;;11.05;3.38;;;;;;;19.57;51.41;101566.63;4229441;28;20043;-61
2022/01/10 03:27:27;;;;;;;6.85;2.95;;;;;;;19.57;51.05;101568.56;4227434;28;20043;-60
2022/01/10 03:29:28;;;;;;;8.65;3.30;;;;;;;19.50;50.93;101561.22;4214951;28;20036;-62
2022/01/10 03:31:31;;;;;;;5.50;3.35;;;;;;;19.55;50.89;101574.34;4224756;28;20069;-62
2022/01/10 03:33:32;;;;;;;5.05;3.03;;;;;;;19.54;50.64;101576.28;4222486;28;20108;-62
2022/01/10 03:35:34;;;;;;;7.57;3.60;;;;;;;19.53;50.89;101571.00;4228236;27;20039;-62
2022/01/10 03:37:35;;;;;;;5.00;3.38;;;;;;;19.54;51.03;101576.28;4235027;27;20035;-63
2022/01/10 03:39:37;;;;;;;4.18;2.80;;;;;;;19.53;50.86;101571.00;4234323;27;20031;-60
2022/01/10 03:41:38;;;;;;;8.38;2.95;;;;;;;19.52;50.57;101574.88;4224352;27;20096;-61
2022/01/10 03:43:40;;;;;;;6.43;3.70;;;;;;;19.52;50.69;101585.97;4230622;27;20048;-60
2022/01/10 03:45:41;;;;;;;8.18;3.40;;;;;;;19.52;50.93;101585.97;4234387;27;20080;-58
2022/01/10 03:47:42;;;;;;;4.30;3.00;;;;;;;19.50;50.61;101588.16;4242280;27;20111;-60
2022/01/10 03:49:44;;;;;;;6.35;3.08;;;;;;;19.50;50.86;101588.16;4224019;28;20490;-61
2022/01/10 03:51:46;;;;;;;8.98;3.38;;;;;;;19.48;50.90;101585.66;4219424;28;20093;-61
2022/01/10 03:53:47;;;;;;;6.18;3.03;;;;;;;19.46;50.91;101593.38;4221571;28;20528;-62
2022/01/10 03:55:51;;;;;;;6.15;3.03;;;;;;;19.48;50.82;101595.91;4219790;28;20437;-64
2022/01/10 03:57:53;;;;;;;7.45;3.03;;;;;;;19.45;51.03;101597.25;4228309;28;20115;-61
2022/01/10 03:59:57;;;;;;;3.33;2.65;;;;;;;19.49;50.93;101615.06;4218984;28;20120;-61
2022/01/10 04:01:58;;;;;;;4.35;2.75;;;;;;;19.45;50.81;101593.63;4231566;27;20120;-61
2022/01/10 04:04:00;;;;;;;4.13;2.85;;;;;;;19.48;50.99;101602.28;4225098;28;20069;-62
2022/01/10 04:06:01;;;;;;;4.95;2.70;;;;;;;19.47;51.05;101605.31;4218404;27;20089;-58
2022/01/10 04:08:03;;;;;;;5.45;2.80;;;;;;;19.42;50.89;101602.47;4229022;27;20027;-62
2022/01/10 04:10:08;;;;;;;6.78;2.92;;;;;;;19.45;50.63;101607.50;4231014;27;20043;-60
2022/01/10 04:12:09;;;;;;;9.88;3.38;;;;;;;19.45;50.87;101590.84;4217406;28;20039;-62
2022/01/10 04:14:11;;;;;;;6.07;3.20;;;;;;;19.43;50.86;101593.06;4231212;28;20092;-62
2022/01/10 04:16:12;;;;;;;4.45;3.58;;;;;;;19.42;50.87;101592.19;4230492;27;20432;-61
2022/01/10 04:18:14;;;;;;;7.95;4.10;;;;;;;19.38;51.03;101587.41;4230813;27;20032;-61
2022/01/10 04:20:15;;;;;;;6.75;4.75;;;;;;;19.37;50.69;101589.34;4220376;28;20441;-62
2022/01/10 04:22:17;;;;;;;7.03;4.78;;;;;;;19.36;50.75;101587.69;4222486;27;20055;-61
2022/01/10 04:24:18;;;;;;;11.95;6.60;;;;;;;19.36;51.06;101589.63;4229773;27;20035;-61
2022/01/10 04:26:20;;;;;;;11.18;6.97;;;;;;;19.35;51.01;101594.31;4229507;27;20043;-61
2022/01/10 04:28:24;;;;;;;13.23;7.68;;;;;;;19.36;50.54;101617.38;4234976;27;20765;-63
2022/01/10 04:30:26;;;;;;;15.18;8.43;;;;;;;19.36;50.85;101609.03;4231452;27;20156;-60
2022/01/10 04:32:30;;;;;;;16.58;9.50;;;;;;;19.35;50.67;101618.47;4230733;27;20027;-61
2022/01/10 04:34:32;;;;;;;18.92;9.45;;;;;;;19.33;50.78;101624.25;4234216;27;20044;-62
2022/01/10 04:36:33;;;;;;;17.38;9.70;;;;;;;19.33;50.70;101640.06;4230777;27;20047;-62
2022/01/10 04:38:35;;;;;;;20.25;11.13;;;;;;;19.29;50.66;101635.03;4221990;28;20035;-62
2022/01/10 04:40:37;;;;;;;19.80;11.68;;;;;;;19.30;50.53;101645.03;4229332;27;20485;-61
2022/01/10 04:42:38;;;;;;;19.10;11.68;;;;;;;19.32;50.64;101635.63;4216628;28;20220;-61
2022/01/10 04:44:41;;;;;;;21.45;12.90;;;;;;;19.32;50.42;101643.94;4234291;27;20035;-62
2022/01/10 04:46:42;;;;;;;22.20;12.73;;;;;;;19.30;50.68;101639.50;4227107;27;20045;-60
2022/01/10 04:48:44;;;;;;;20.40;12.45;;;;;;;19.26;50.45;101643.88;4222641;28;20096;-61
2022/01/10 04:53:05;;;;;;;19.60;12.50;;;;;;;19.30;50.46;101647.81;4226006;28;20031;-62
2022/01/10 04:55:08;;;;;;;19.42;13.05;;;;;;;19.27;50.61;101656.63;4228020;28;20479;-63
2022/01/10 04:57:10;;;;;;;26.02;13.05;;;;;;;19.21;50.67;101643.78;4222129;28;20180;-61
2022/01/10 04:59:12;;;;;;;23.77;14.02;;;;;;;19.26;50.35;101652.19;4228280;28;20436;-62
2022/01/10 05:01:15;;;;;;;23.73;14.15;;;;;;;19.26;50.55;101659.69;4223090;28;20092;-60
2022/01/10 05:03:17;;;;;;;24.42;13.95;;;;;;;19.24;50.50;101650.75;4222285;28;20437;-62
2022/01/10 05:05:18;;;;;;;25.00;14.57;;;;;;;19.24;50.49;101659.06;4225690;28;20043;-62
2022/01/10 05:07:20;;;;;;;22.98;14.30;;;;;;;19.23;50.16;101668.50;4229513;28;20027;-62
2022/01/10 05:09:24;;;;;;;25.45;14.80;;;;;;;19.24;50.18;101664.63;4224030;28;20039;-60
2022/01/10 05:11:25;;;;;;;25.52;16.42;;;;;;;19.24;50.38;101651.59;4219729;28;20089;-61
2022/01/10 05:13:27;;;;;;;27.02;16.27;;;;;;;19.23;50.33;101649.91;4225952;28;20036;-62
2022/01/10 05:15:29;;;;;;;27.48;17.13;;;;;;;19.22;50.33;101659.34;4223326;28;20036;-62
2022/01/10 05:17:30;;;;;;;27.23;16.92;;;;;;;19.23;50.40;101658.22;4220138;28;20080;-62
2022/01/10 05:19:32;;;;;;;24.00;15.82;;;;;;;19.23;50.00;101661.00;4228787;28;20052;-60
2022/01/10 05:21:34;;;;;;;25.60;17.20;;;;;;;19.22;49.80;101670.44;4226898;28;20028;-61
2022/01/10 05:23:35;;;;;;;25.70;15.18;;;;;;;19.21;49.91;101663.22;4233327;28;20043;-61
2022/01/10 05:25:40;;;;;;;28.95;17.52;;;;;;;19.20;49.78;101653.22;4225041;28;20048;-61
2022/01/10 05:27:41;;;;;;;25.08;17.02;;;;;;;19.20;50.05;101664.31;4227336;28;20086;-60
2022/01/10 05:29:42;;;;;;;25.23;16.55;;;;;;;19.22;49.62;101659.34;4222892;28;20082;-60
2022/01/10 05:31:44;;;;;;;29.85;17.98;;;;;;;19.20;49.94;101655.16;4227982;28;20062;-60
2022/01/10 05:33:45;;;;;;;24.33;16.60;;;;;;;19.17;49.82;101645.38;4231436;28;20043;-61
2022/01/10 05:35:49;;;;;;;27.98;16.77;;;;;;;19.18;49.86;101657.31;4228205;28;20031;-59
2022/01/10 05:37:51;;;;;;;28.48;19.05;;;;;;;19.17;49.76;101659.25;4222360;28;20048;-59
2022/01/10 05:39:52;;;;;;;26.27;16.77;;;;;;;19.14;50.31;101647.81;4222382;28;20036;-59
2022/01/10 05:41:54;;;;;;;27.15;17.85;;;;;;;19.19;50.67;101654.28;4220197;27;20437;-59
2022/01/10 05:43:58;;;;;;;24.85;16.75;;;;;;;19.18;50.23;101652.59;4225887;27;20417;-60
2022/01/10 05:45:59;;;;;;;27.83;17.33;;;;;;;19.19;50.27;101665.38;4225110;28;20116;-58
2022/01/10 05:48:08;;;;;;;26.00;16.55;;;;;;;19.18;50.59;101663.69;4230775;28;20092;-58
2022/01/10 05:50:11;;;;;;;22.05;16.63;;;;;;;19.17;50.33;101650.94;4232783;27;20039;-59
2022/01/10 05:52:13;;;;;;;30.83;17.42;;;;;;;19.20;50.34;101655.16;4226054;28;20047;-57
2022/01/10 05:54:14;;;;;;;28.98;17.35;;;;;;;19.21;50.33;101662.38;4231953;27;20121;-59
2022/01/10 05:56:16;;;;;;;27.67;16.88;;;;;;;19.21;50.34;101656.81;4240871;27;20031;-60
2022/01/10 05:58:17;;;;;;;25.25;17.23;;;;;;;19.21;50.49;101656.81;4235549;27;20036;-60
2022/01/10 06:00:19;;;;;;;24.02;16.15;;;;;;;19.20;50.46;101677.34;4233410;27;20039;-59
2022/01/10 06:02:23;;;;;;;22.00;15.90;;;;;;;19.21;50.26;101684.56;4222779;27;20043;-59
2022/01/10 06:04:24;;;;;;;26.35;16.42;;;;;;;19.21;50.38;101693.72;4236499;27;20073;-58
2022/01/10 06:06:26;;;;;;;25.45;15.95;;;;;;;19.21;50.52;101695.66;4242254;27;20043;-58
2022/01/10 06:08:28;;;;;;;27.42;15.95;;;;;;;19.21;50.49;101679.00;4232499;27;20035;-59
2022/01/10 06:10:31;;;;;;;24.20;16.48;;;;;;;19.20;50.30;101682.88;4235797;27;20031;-59
2022/01/10 06:12:35;;;;;;;24.92;15.57;;;;;;;19.14;50.10;101672.78;4226900;27;20044;-58
2022/01/10 06:14:37;;;;;;;23.35;15.02;;;;;;;19.12;50.55;101661.94;4238553;27;20047;-59
2022/01/10 06:16:38;;;;;;;24.17;15.00;;;;;;;19.16;50.47;101670.59;4233769;27;20084;-60
2022/01/10 06:18:39;;;;;;;23.45;15.45;;;;;;;19.15;50.77;101663.34;4232023;27;20043;-58
2022/01/10 06:20:41;;;;;;;24.00;14.05;;;;;;;19.15;50.09;101678.09;4238142;27;20076;-57
2022/01/10 06:22:43;;;;;;;21.40;14.60;;;;;;;19.15;50.10;101685.53;4238876;27;20039;-59
2022/01/10 06:24:44;;;;;;;21.42;13.68;;;;;;;19.15;50.25;101691.97;4232367;27;20047;-60
2022/01/10 06:26:46;;;;;;;22.42;13.75;;;;;;;19.12;50.22;101681.34;4235953;27;20044;-58
2022/01/10 06:28:47;;;;;;;21.02;13.60;;;;;;;19.20;50.18;101694.81;4232792;27;20035;-57
2022/01/10 06:30:51;;;;;;;18.73;13.00;;;;;;;19.20;50.25;101689.28;4234236;27;20052;-56
2022/01/10 06:32:53;;;;;;;20.35;13.75;;;;;;;19.24;50.13;101678.50;4238973;27;20051;-59
2022/01/10 06:34:54;;;;;;;20.50;12.23;;;;;;;19.27;50.19;101684.38;4231433;27;20539;-56
2022/01/10 06:36:56;;;;;;;22.05;12.52;;;;;;;19.29;49.86;101690.53;4247420;27;20475;-57
2022/01/10 06:38:57;;;;;;;18.83;12.18;;;;;;;19.32;49.85;101686.41;4236942;27;20043;-59
2022/01/10 06:40:58;;;;;;;18.33;11.98;;;;;;;19.35;49.91;101691.47;4235591;27;20024;-57
2022/01/10 06:43:00;;;;;;;21.90;12.38;;;;;;;19.39;49.94;101691.81;4233494;27;20031;-57
2022/01/10 06:45:02;;;;;;;18.20;11.10;;;;;;;19.42;49.84;101696.81;4230224;27;20092;-56
2022/01/10 06:47:04;;;;;;;20.55;11.70;;;;;;;19.44;49.81;101700.22;4232620;27;20047;-58
2022/01/10 06:49:05;;;;;;;18.95;12.23;;;;;;;19.47;49.75;101705.22;4222775;28;20088;-57
2022/01/10 06:51:06;;;;;;;18.58;10.50;;;;;;;19.48;49.92;101693.06;4227183;27;20035;-58
2022/01/10 06:53:08;;;;;;;18.65;10.60;;;;;;;19.50;49.82;101699.19;4242509;27;20034;-60
2022/01/10 06:55:10;;;;;;;18.58;11.18;;;;;;;19.50;49.79;101699.19;4242591;27;20040;-57
2022/01/10 06:57:11;;;;;;;18.08;11.23;;;;;;;19.51;49.71;101701.69;4233615;27;20392;-59
2022/01/10 06:59:13;;;;;;;17.33;10.40;;;;;;;19.54;50.08;101697.59;4230066;28;20040;-57
2022/01/10 07:01:17;;;;;;;16.52;10.68;;;;;;;19.56;49.64;101706.50;4231585;27;20027;-58
2022/01/10 07:03:19;;;;;;;14.93;9.55;;;;;;;19.54;49.50;101703.16;4236646;27;20069;-57
2022/01/10 07:05:20;;;;;;;18.10;10.05;;;;;;;19.58;49.77;101720.97;4218846;28;20089;-58
2022/01/10 07:07:22;;;;;;;15.38;9.70;;;;;;;19.58;49.50;101712.66;4230368;27;20043;-57
2022/01/10 07:09:23;;;;;;;14.63;9.55;;;;;;;19.61;49.69;101727.97;4233152;27;20081;-59
2022/01/10 07:11:25;;;;;;;15.48;9.45;;;;;;;19.63;49.75;101732.19;4241933;27;20047;-59
2022/01/10 07:13:26;;;;;;;15.10;9.05;;;;;;;19.63;49.75;101725.81;4233943;27;20088;-57
2022/01/10 07:15:29;;;;;;;16.70;8.38;;;;;;;19.65;49.34;101735.53;4236879;27;20100;-60
2022/01/10 07:17:32;;;;;;;13.25;8.65;;;;;;;19.66;49.35;101736.41;4235877;27;20051;-58
2022/01/10 07:19:34;;;;;;;13.73;7.93;;;;;;;19.66;49.28;101731.69;4228102;28;20073;-57
2022/01/10 07:21:39;;;;;;;13.85;8.30;;;;;;;19.67;49.08;101732.53;4230469;28;20970;-60
2022/01/10 07:23:40;;;;;;;;;;;;;;;19.67;49.32;101743.66;4235025;27;20092;-58
2022/01/10 07:25:41;;;;;;;13.80;8.40;;;;;;;19.74;48.98;101745.13;4231637;27;19920;-57
2022/01/10 07:27:46;;;;;;;12.35;7.80;;;;;;;19.74;49.29;101756.25;4235183;27;20043;-56
2022/01/10 07:29:49;;;;;;;11.93;7.55;;;;;;;19.73;49.00;101753.72;4239030;27;20120;-58
2022/01/10 07:31:51;;;;;;;11.73;7.40;;;;;;;19.70;49.16;101744.00;4235287;27;20046;-60
2022/01/10 07:33:52;;;;;;;30.42;9.07;;;;;;;19.69;49.21;101738.66;4230354;27;20048;-58
2022/01/10 07:35:54;;;;;;;16.23;7.60;;;;;;;19.67;49.12;101744.47;4230186;28;20401;-59
2022/01/10 07:37:55;;;;;;;25.70;8.30;;;;;;;19.66;48.98;101753.91;4230430;28;20539;-59
2022/01/10 07:39:56;;;;;;;15.90;7.82;;;;;;;19.66;49.10;101753.06;4231757;28;20028;-58
2022/01/10 07:41:58;;;;;;;15.23;7.78;;;;;;;19.64;48.96;101761.63;4230641;28;20073;-59
2022/01/10 07:44:00;;;;;;;15.98;7.60;;;;;;;19.62;49.30;101763.84;4227673;28;20516;-59
2022/01/10 07:46:03;;;;;;;19.08;7.32;;;;;;;19.63;49.90;101759.97;4230769;27;20101;-58
2022/01/10 07:48:05;;;;;;;13.63;6.43;;;;;;;19.63;49.59;101768.28;4220411;27;20056;-59
2022/01/10 07:50:07;;;;;;;14.38;7.15;;;;;;;19.65;49.82;101766.09;4227444;27;20543;-58
2022/01/10 07:52:10;;;;;;;14.90;7.20;;;;;;;19.64;50.11;101761.63;4227090;27;20093;-58
2022/01/10 07:54:12;;;;;;;14.45;6.30;;;;;;;19.65;50.45;101757.75;4236482;27;20031;-58
2022/01/10 07:56:13;;;;;;;20.45;6.75;;;;;;;19.65;50.04;101763.31;4245198;27;20051;-59
2022/01/10 07:58:16;;;;;;;20.27;7.55;;;;;;;19.64;50.51;101772.75;4242899;27;20031;-60
2022/01/10 08:00:18;;;;;;;13.63;6.95;;;;;;;19.65;50.87;101770.81;4247437;27;20039;-59
2022/01/10 08:02:21;;;;;;;14.98;6.10;;;;;;;19.65;50.57;101773.59;4236906;27;20096;-60
2022/01/10 08:04:22;;;;;;;18.95;7.53;;;;;;;19.64;50.51;101772.75;4239430;27;20088;-55
2022/01/10 08:06:23;;;;;;;11.90;6.22;;;;;;;19.65;50.56;101773.59;4234765;27;20431;-58
2022/01/10 08:08:25;;;;;;;15.98;6.78;;;;;;;19.60;50.96;101771.56;4229696;28;20039;-58
2022/01/10 08:10:27;;;;;;;12.95;6.22;;;;;;;19.62;51.23;101774.09;4229559;28;20048;-59
2022/01/10 08:12:28;;;;;;;12.70;6.85;;;;;;;19.66;51.07;101780.84;4229825;28;20039;-60
2022/01/10 08:14:30;;;;;;;11.60;6.20;;;;;;;19.66;50.99;101773.34;4231732;28;20462;-59
2022/01/10 08:16:32;;;;;;;11.27;6.55;;;;;;;19.66;51.25;101762.25;4230779;28;20456;-59
2022/01/10 08:18:35;;;;;;;10.43;5.40;;;;;;;19.66;51.01;101772.50;4224590;28;20096;-60
2022/01/10 08:20:36;;;;;;;14.25;6.75;;;;;;;19.64;51.10;101764.41;4229871;28;20531;-59
2022/01/10 08:22:38;;;;;;;13.60;6.18;;;;;;;19.62;51.39;101766.63;4223147;28;20048;-58
2022/01/10 08:24:39;;;;;;;12.70;5.78;;;;;;;19.64;51.68;101766.34;4218941;28;20503;-58
2022/01/10 08:26:41;;;;;;;9.18;5.93;;;;;;;19.64;51.47;101772.75;4231377;28;20047;-61
2022/01/10 08:28:42;;;;;;;11.10;5.90;;;;;;;19.62;51.61;101763.84;4222662;28;20031;-59
2022/01/10 08:30:44;;;;;;;10.85;5.88;;;;;;;19.61;51.66;101767.72;4231035;28;20466;-59
2022/01/10 08:32:50;;;;;;;12.20;6.03;;;;;;;19.61;52.01;101764.94;4230109;28;20104;-59
2022/01/10 08:34:54;;;;;;;18.33;6.22;;;;;;;19.62;52.01;101779.66;4220627;28;20044;-59
2022/01/10 08:36:56;;;;;;;10.43;5.97;;;;;;;19.60;51.94;101784.56;4224186;28;20104;-59
2022/01/10 08:38:58;;;;;;;17.23;5.53;;;;;;;19.60;52.00;101788.22;4229765;28;20097;-59
2022/01/10 08:40:59;;;;;;;11.90;6.00;;;;;;;19.62;52.30;101801.88;4228093;28;20047;-60
2022/01/10 08:43:06;;;;;;;10.02;5.85;;;;;;;19.60;52.13;101796.56;4230597;28;20089;-59
2022/01/10 08:45:08;;;;;;;13.15;5.43;;;;;;;19.60;52.59;101790.13;4230151;28;20044;-59
2022/01/10 08:47:10;;;;;;;9.98;5.40;;;;;;;19.57;52.28;101783.16;4224723;28;20040;-59
2022/01/10 08:49:13;;;;;;;13.93;6.15;;;;;;;19.60;52.53;101791.00;4218582;28;20040;-59
2022/01/10 08:51:14;;;;;;;12.30;5.47;;;;;;;19.58;52.68;101784.84;4222671;28;20047;-60
2022/01/10 08:53:15;;;;;;;11.57;5.00;;;;;;;19.58;52.75;101787.63;4228125;28;20039;-60
2022/01/10 08:55:18;;;;;;;10.05;5.28;;;;;;;19.57;52.60;101790.66;4229052;28;20096;-59
2022/01/10 08:57:19;;;;;;;10.68;5.40;;;;;;;19.57;52.81;101793.44;4229468;28;20032;-58
2022/01/10 08:59:22;;;;;;;9.65;5.00;;;;;;;19.55;53.06;101810.31;4214733;28;20500;-58
2022/01/10 09:01:23;;;;;;;10.70;5.13;;;;;;;19.52;53.30;101802.50;4229939;28;20035;-59
2022/01/10 09:03:25;;;;;;;10.70;5.50;;;;;;;19.49;53.67;101803.84;4213826;28;20110;-58
2022/01/10 09:05:26;;;;;;;10.07;5.03;;;;;;;19.50;53.55;101810.22;4219613;28;20424;-60
2022/01/10 09:07:30;;;;;;;12.45;4.82;;;;;;;19.49;53.79;101816.88;4229805;28;20043;-59
2022/01/10 09:09:32;;;;;;;9.40;4.57;;;;;;;19.48;53.90;101818.81;4230671;27;20160;-59
2022/01/10 09:11:33;;;;;;;9.57;5.22;;;;;;;19.42;53.97;101817.03;4231618;27;20487;-59
2022/01/10 09:13:35;;;;;;;7.63;4.75;;;;;;;19.48;53.96;101831.84;4217271;28;20145;-59
2022/01/10 09:15:39;;;;;;;8.40;4.95;;;;;;;19.46;53.99;101836.78;4226840;28;20039;-59
2022/01/10 09:17:41;;;;;;;8.60;4.85;;;;;;;19.45;54.04;101837.91;4225645;28;20392;-55
2022/01/10 09:19:42;;;;;;;10.38;4.40;;;;;;;19.41;53.94;101840.31;4222947;28;20478;-60
2022/01/10 09:21:43;;;;;;;10.73;4.35;;;;;;;19.42;54.38;101846.72;4224763;28;20451;-58
2022/01/10 09:23:45;;;;;;;7.65;4.35;;;;;;;19.42;54.50;101843.94;4217995;28;20039;-59
2022/01/10 09:25:46;;;;;;;12.02;5.15;;;;;;;19.42;54.48;101863.38;4231283;28;20069;-59
2022/01/10 09:27:51;;;;;;;10.38;4.68;;;;;;;19.35;54.36;101851.59;4219124;27;20116;-59
2022/01/10 09:29:52;;;;;;;10.20;4.22;;;;;;;19.37;54.28;101861.34;4231405;28;20039;-59
2022/01/10 09:31:54;;;;;;;11.40;4.53;;;;;;;19.37;54.73;101860.50;4229029;27;20077;-59
2022/01/10 09:33:56;;;;;;;6.53;4.40;;;;;;;19.35;54.52;101862.69;4226342;27;20077;-58
2022/01/10 09:35:57;;;;;;;6.40;4.05;;;;;;;19.34;54.70;101872.97;4233191;28;20096;-55